createdAt,value
2022-08-10T00:00:46.645Z,3.60
2022-08-10T00:03:21.604Z,4.05
2022-08-10T00:05:57.968Z,4.10
2022-08-10T00:08:32.600Z,3.90
2022-08-10T00:11:15.415Z,3.93
2022-08-10T00:13:52.155Z,3.85
2022-08-10T00:16:26.155Z,3.70
2022-08-10T00:19:01.134Z,3.50
2022-08-10T00:21:35.403Z,3.57
2022-08-10T00:24:11.423Z,3.95
2022-08-10T00:27:58.568Z,3.33
2022-08-10T00:29:39.363Z,3.47
2022-08-10T00:32:14.503Z,3.47
2022-08-10T00:34:50.130Z,3.97
2022-08-10T00:37:24.341Z,3.95
2022-08-10T00:39:59.637Z,3.35
2022-08-10T00:42:36.949Z,3.53
2022-08-10T00:45:12.537Z,4.00
2022-08-10T00:47:47.893Z,3.50
2022-08-10T00:50:22.587Z,3.70
2022-08-10T00:52:57.180Z,3.30
2022-08-10T00:57:14.300Z,3.60
2022-08-10T00:58:32.847Z,3.57
2022-08-10T01:01:11.679Z,3.50
2022-08-10T01:04:39.826Z,4.47
2022-08-10T01:07:09.761Z,3.75
2022-08-10T01:09:55.804Z,4.18
2022-08-10T01:12:47.134Z,4.10
2022-08-10T01:15:28.315Z,4.20
2022-08-10T01:18:05.916Z,4.78
2022-08-10T01:20:36.351Z,5.00
2022-08-10T01:23:37.379Z,5.25
2022-08-10T01:26:32.012Z,5.28
2022-08-10T01:29:33.211Z,3.63
2022-08-10T01:32:08.907Z,3.72
2022-08-10T01:37:20.432Z,4.63
2022-08-10T01:39:55.406Z,4.15
2022-08-10T01:42:30.573Z,3.60
2022-08-10T01:45:09.392Z,3.57
2022-08-10T01:47:59.605Z,4.23
2022-08-10T01:50:58.976Z,4.07
2022-08-10T01:53:41.373Z,4.38
2022-08-10T01:56:17.001Z,3.95
2022-08-10T01:58:53.257Z,3.45
2022-08-10T02:01:31.674Z,3.90
2022-08-10T02:04:08.549Z,3.42
2022-08-10T02:06:46.933Z,3.45
2022-08-10T02:09:17.400Z,3.63
2022-08-10T02:12:07.735Z,3.80
2022-08-10T02:14:45.104Z,4.07
2022-08-10T02:17:59.260Z,4.32
2022-08-10T02:20:20.091Z,3.60
2022-08-10T02:22:56.582Z,3.75
2022-08-10T02:25:41.067Z,4.15
2022-08-10T02:28:27.212Z,4.40
2022-08-10T02:31:07.027Z,3.58
2022-08-10T02:33:57.233Z,4.07
2022-08-10T02:39:08.626Z,4.35
2022-08-10T02:45:02.221Z,3.55
2022-08-10T02:45:24.706Z,3.28
2022-08-10T02:47:52.131Z,4.25
2022-08-10T02:50:32.315Z,5.25
2022-08-10T02:53:08.022Z,4.20
2022-08-10T02:56:08.501Z,4.80
2022-08-10T02:58:42.458Z,4.18
2022-08-10T03:01:20.284Z,3.70
2022-08-10T03:03:57.579Z,3.05
2022-08-10T03:06:38.081Z,3.42
2022-08-10T03:09:15.109Z,4.47
2022-08-10T03:12:35.315Z,4.50
2022-08-10T03:14:42.649Z,3.92
2022-08-10T03:17:17.849Z,3.50
2022-08-10T03:20:34.465Z,4.80
2022-08-10T03:22:48.646Z,4.35
2022-08-10T03:25:26.991Z,3.70
2022-08-10T03:28:01.951Z,3.90
2022-08-10T03:30:36.764Z,4.40
2022-08-10T03:33:11.832Z,4.68
2022-08-10T03:36:43.889Z,5.45
2022-08-10T03:38:40.925Z,4.13
2022-08-10T03:41:18.546Z,4.60
2022-08-10T03:43:53.761Z,4.55
2022-08-10T03:46:28.618Z,3.85
2022-08-10T03:49:05.742Z,5.75
2022-08-10T03:51:40.846Z,4.28
2022-08-10T03:54:15.617Z,5.18
2022-08-10T03:56:53.377Z,5.90
2022-08-10T03:59:28.299Z,4.57
2022-08-10T04:02:43.942Z,5.30
2022-08-10T04:04:56.401Z,5.50
2022-08-10T04:07:35.588Z,5.68
2022-08-10T04:10:13.052Z,5.72
2022-08-10T04:12:50.973Z,4.78
2022-08-10T04:15:26.151Z,5.45
2022-08-10T04:18:05.908Z,5.50
2022-08-10T04:20:43.089Z,6.32
2022-08-10T04:23:19.032Z,5.75
2022-08-10T04:25:54.391Z,5.00
2022-08-10T04:28:30.937Z,5.75
2022-08-10T04:31:05.125Z,6.60
2022-08-10T04:33:40.354Z,5.50
2022-08-10T04:36:14.437Z,6.88
2022-08-10T04:38:49.496Z,6.45
2022-08-10T04:41:25.066Z,6.60
2022-08-10T04:44:02.384Z,6.78
2022-08-10T04:46:55.499Z,7.20
2022-08-10T04:49:54.255Z,6.72
2022-08-10T04:52:27.373Z,5.70
2022-08-10T04:55:02.355Z,5.35
2022-08-10T04:57:36.600Z,4.50
2022-08-10T05:00:19.325Z,4.25
2022-08-10T05:02:54.769Z,4.85
2022-08-10T05:05:29.366Z,3.95
2022-08-10T05:08:04.646Z,4.53
2022-08-10T05:10:39.965Z,4.57
2022-08-10T05:13:14.599Z,4.07
2022-08-10T05:15:53.855Z,3.80
2022-08-10T05:18:28.923Z,3.38
2022-08-10T05:21:03.181Z,3.85
2022-08-10T05:23:37.875Z,3.55
2022-08-10T05:26:12.408Z,3.75
2022-08-10T05:28:46.643Z,3.63
2022-08-10T05:31:24.800Z,3.58
2022-08-10T05:34:00.109Z,3.67
2022-08-10T05:36:34.882Z,4.05
2022-08-10T05:39:09.487Z,3.97
2022-08-10T05:41:47.747Z,3.78
2022-08-10T05:44:24.677Z,3.30
2022-08-10T05:47:02.710Z,3.05
2022-08-10T05:49:37.866Z,2.90
2022-08-10T05:52:15.312Z,3.13
2022-08-10T05:54:50.496Z,3.10
2022-08-10T05:57:25.180Z,3.30
2022-08-10T06:00:31.038Z,3.42
2022-08-10T06:03:02.718Z,3.15
2022-08-10T06:05:38.667Z,3.35
2022-08-10T06:08:18.252Z,3.38
2022-08-10T06:12:23.599Z,3.35
2022-08-10T06:14:13.724Z,3.85
2022-08-10T06:16:51.845Z,3.40
2022-08-10T06:19:32.304Z,3.10
2022-08-10T06:22:09.325Z,2.75
2022-08-10T06:25:12.288Z,3.60
2022-08-10T06:27:38.837Z,3.25
2022-08-10T06:30:20.028Z,3.03
2022-08-10T06:32:56.118Z,3.42
2022-08-10T06:35:35.550Z,3.25
2022-08-10T06:38:12.970Z,2.90
2022-08-10T06:40:48.690Z,2.72
2022-08-10T06:43:23.968Z,3.15
2022-08-10T06:46:06.802Z,2.85
2022-08-10T06:48:44.965Z,2.97
2022-08-10T06:51:29.358Z,3.03
2022-08-10T06:54:04.698Z,3.10
2022-08-10T06:56:55.839Z,3.30
2022-08-10T06:59:36.861Z,3.20
2022-08-10T07:02:12.248Z,2.88
2022-08-10T07:04:47.941Z,3.20
2022-08-10T07:07:27.257Z,2.90
2022-08-10T07:10:03.769Z,3.00
2022-08-10T07:12:42.203Z,3.20
2022-08-10T07:15:17.671Z,2.85
2022-08-10T07:20:27.190Z,2.92
2022-08-10T07:23:55.896Z,2.95
2022-08-10T07:25:59.382Z,2.80
2022-08-10T07:28:33.628Z,2.75
2022-08-10T07:31:29.586Z,2.65
2022-08-10T07:34:06.803Z,2.80
2022-08-10T07:36:40.768Z,2.25
2022-08-10T07:39:18.046Z,2.80
2022-08-10T07:42:13.284Z,2.80
2022-08-10T07:44:48.510Z,2.60
2022-08-10T07:47:52.888Z,2.80
2022-08-10T07:50:22.546Z,2.37
2022-08-10T07:52:58.793Z,2.45
2022-08-10T07:56:04.329Z,2.78
2022-08-10T07:58:32.295Z,2.70
2022-08-10T08:01:07.440Z,2.55
2022-08-10T08:03:43.011Z,2.85
2022-08-10T08:06:18.113Z,2.50
2022-08-10T08:08:52.168Z,2.35
2022-08-10T08:11:29.177Z,2.20
2022-08-10T08:14:03.088Z,3.00
2022-08-10T08:16:38.486Z,2.53
2022-08-10T08:24:30.563Z,2.00
2022-08-10T08:25:02.740Z,2.28
2022-08-10T08:27:41.141Z,2.53
2022-08-10T08:30:27.764Z,2.20
2022-08-10T08:33:03.216Z,2.40
2022-08-10T08:35:37.856Z,2.03
2022-08-10T08:38:31.551Z,2.15
2022-08-10T08:41:11.155Z,1.80
2022-08-10T08:43:57.035Z,2.33
2022-08-10T08:50:07.929Z,2.20
2022-08-10T08:52:42.982Z,2.20
2022-08-10T08:56:04.292Z,1.87
2022-08-10T08:58:33.733Z,1.73
2022-08-10T09:01:21.732Z,1.88
2022-08-10T09:04:19.841Z,1.85
2022-08-10T09:07:59.404Z,1.92
2022-08-10T09:10:08.722Z,2.08
2022-08-10T09:12:48.477Z,2.20
2022-08-10T09:15:39.712Z,2.00
2022-08-10T09:18:23.013Z,1.95
2022-08-10T09:21:04.444Z,1.38
2022-08-10T09:24:01.510Z,1.33
2022-08-10T09:26:39.618Z,1.23
2022-08-10T09:29:18.499Z,1.58
2022-08-10T09:36:16.276Z,1.50
2022-08-10T09:36:20.490Z,1.20
2022-08-10T09:38:09.182Z,1.40
2022-08-10T09:40:59.695Z,1.20
2022-08-10T09:43:48.016Z,1.10
2022-08-10T09:46:36.169Z,1.05
2022-08-10T09:49:25.063Z,1.20
2022-08-10T09:52:13.555Z,1.50
2022-08-10T09:54:57.612Z,1.50
2022-08-10T09:57:44.876Z,1.40
2022-08-10T10:00:22.910Z,1.55
2022-08-10T10:03:06.895Z,1.40
2022-08-10T10:05:52.256Z,1.70
2022-08-10T10:08:33.478Z,1.40
2022-08-10T10:11:13.901Z,1.60
2022-08-10T10:14:04.400Z,1.30
2022-08-10T10:16:49.319Z,1.33
2022-08-10T10:19:30.738Z,1.50
2022-08-10T10:22:17.435Z,1.10
2022-08-10T10:24:55.998Z,1.25
2022-08-10T10:27:38.148Z,1.20
2022-08-10T10:30:14.419Z,1.10
2022-08-10T10:32:58.360Z,1.60
2022-08-10T10:35:38.515Z,1.50
2022-08-10T10:38:15.931Z,1.20
2022-08-10T10:40:57.077Z,1.10
2022-08-10T10:43:42.279Z,1.38
2022-08-10T10:46:25.719Z,1.40
2022-08-10T10:49:07.477Z,1.50
2022-08-10T10:51:44.520Z,1.25
2022-08-10T10:54:22.863Z,1.75
2022-08-10T10:57:04.741Z,1.50
2022-08-10T10:59:55.817Z,1.50
2022-08-10T11:02:46.671Z,1.55
2022-08-10T11:05:31.013Z,1.52
2022-08-10T11:08:06.938Z,1.50
2022-08-10T11:10:47.225Z,1.33
2022-08-10T11:14:25.727Z,1.70
2022-08-10T11:16:33.049Z,1.45
2022-08-10T11:19:16.449Z,1.30
2022-08-10T11:22:01.045Z,1.85
2022-08-10T11:24:46.921Z,1.80
2022-08-10T11:27:32.858Z,1.40
2022-08-10T11:30:14.711Z,2.70
2022-08-10T11:33:07.565Z,1.63
2022-08-10T11:35:48.613Z,1.40
2022-08-10T11:38:36.878Z,1.40
2022-08-10T11:42:09.983Z,1.40
2022-08-10T11:44:17.366Z,1.50
2022-08-10T11:46:59.832Z,1.43
2022-08-10T11:49:36.243Z,1.70
2022-08-10T11:52:13.800Z,1.57
2022-08-10T11:54:53.618Z,1.73
2022-08-10T11:57:54.458Z,1.60
2022-08-10T12:00:24.321Z,1.67
2022-08-10T12:03:04.508Z,1.90
2022-08-10T12:05:52.632Z,1.75
2022-08-10T12:10:07.420Z,1.47
2022-08-10T12:11:29.972Z,2.63
2022-08-10T12:14:20.686Z,1.52
2022-08-10T12:17:01.566Z,1.60
2022-08-10T12:19:59.281Z,1.30
2022-08-10T12:22:42.929Z,2.35
2022-08-10T12:25:56.797Z,1.58
2022-08-10T12:28:21.873Z,1.30
2022-08-10T12:31:18.139Z,1.42
2022-08-10T12:34:02.061Z,1.65
2022-08-10T12:36:43.463Z,1.80
2022-08-10T12:39:20.176Z,1.80
2022-08-10T12:42:00.187Z,1.25
2022-08-10T12:44:42.095Z,1.20
2022-08-10T12:47:22.821Z,1.80
2022-08-10T12:50:29.474Z,1.10
2022-08-10T12:53:04.944Z,1.17
2022-08-10T12:55:48.172Z,1.40
2022-08-10T12:58:58.191Z,1.17
2022-08-10T13:01:17.934Z,1.20
2022-08-10T13:04:23.447Z,1.33
2022-08-10T13:06:52.945Z,0.95
2022-08-10T13:09:30.559Z,1.30
2022-08-10T13:12:39.234Z,1.30
2022-08-10T13:15:25.296Z,1.17
2022-08-10T13:18:03.065Z,1.33
2022-08-10T13:20:38.992Z,1.27
2022-08-10T13:23:16.092Z,1.30
2022-08-10T13:25:57.246Z,1.20
2022-08-10T13:28:45.380Z,1.35
2022-08-10T13:32:04.037Z,1.50
2022-08-10T13:34:43.748Z,1.45
2022-08-10T13:37:21.599Z,1.50
2022-08-10T13:40:00.671Z,1.63
2022-08-10T13:42:40.409Z,1.70
2022-08-10T13:45:18.738Z,1.38
2022-08-10T13:47:57.132Z,1.38
2022-08-10T13:50:33.499Z,1.30
2022-08-10T13:53:15.272Z,1.40
2022-08-10T13:55:55.148Z,1.65
2022-08-10T13:58:36.368Z,1.40
2022-08-10T14:01:16.026Z,1.00
2022-08-10T14:03:51.535Z,0.90
2022-08-10T14:09:06.136Z,1.50
2022-08-10T14:11:42.818Z,1.40
2022-08-10T14:14:21.872Z,1.20
2022-08-10T14:16:57.219Z,2.83
2022-08-10T14:19:34.063Z,1.17
2022-08-10T14:22:11.514Z,1.40
2022-08-10T14:24:49.568Z,1.50
2022-08-10T14:28:02.631Z,1.10
2022-08-10T14:30:43.565Z,1.10
2022-08-10T14:33:18.004Z,1.33
2022-08-10T14:36:19.683Z,1.00
2022-08-10T14:38:48.348Z,1.00
2022-08-10T14:42:03.074Z,1.10
2022-08-10T14:44:23.142Z,0.90
2022-08-10T14:47:42.303Z,1.17
2022-08-10T14:50:01.408Z,1.23
2022-08-10T14:52:39.939Z,1.08
2022-08-10T14:55:26.014Z,1.50
2022-08-10T14:58:19.868Z,1.00
2022-08-10T15:00:59.003Z,1.40
2022-08-10T15:04:00.931Z,2.28
2022-08-10T15:06:35.267Z,1.10
2022-08-10T15:09:12.597Z,1.33
2022-08-10T15:12:12.891Z,1.27
2022-08-10T15:14:51.727Z,1.10
2022-08-10T15:17:29.540Z,0.98
2022-08-10T15:20:26.528Z,1.87
2022-08-10T15:23:03.277Z,1.30
2022-08-10T15:25:40.403Z,1.38
2022-08-10T15:29:24.197Z,1.17
2022-08-10T15:31:31.649Z,1.00
2022-08-10T15:34:19.899Z,1.30
2022-08-10T15:37:39.502Z,2.10
2022-08-10T15:40:22.368Z,1.98
2022-08-10T15:43:05.521Z,1.30
2022-08-10T15:46:02.513Z,1.77
2022-08-10T15:48:44.023Z,1.17
2022-08-10T15:51:33.760Z,1.17
2022-08-10T15:54:33.426Z,1.02
2022-08-10T15:57:11.869Z,1.20
2022-08-10T15:59:48.561Z,1.35
2022-08-10T16:02:29.679Z,1.30
2022-08-10T16:05:08.157Z,1.45
2022-08-10T16:07:49.185Z,1.70
2022-08-10T16:10:30.721Z,1.25
2022-08-10T16:13:50.447Z,0.90
2022-08-10T16:16:07.704Z,1.20
2022-08-10T16:18:44.288Z,1.10
2022-08-10T16:21:19.900Z,1.53
2022-08-10T16:24:11.383Z,1.27
2022-08-10T16:26:54.401Z,1.02
2022-08-10T16:29:29.442Z,1.50
2022-08-10T16:32:05.763Z,2.70
2022-08-10T16:34:41.611Z,1.33
2022-08-10T16:37:17.511Z,1.98
2022-08-10T16:39:58.782Z,1.20
2022-08-10T16:42:43.064Z,1.27
2022-08-10T16:45:22.419Z,1.13
2022-08-10T16:47:56.850Z,1.27
2022-08-10T16:50:36.769Z,1.25
2022-08-10T16:53:14.324Z,1.23
2022-08-10T16:55:50.989Z,1.15
2022-08-10T16:58:30.825Z,1.50
2022-08-10T17:01:07.590Z,1.35
2022-08-10T17:04:07.862Z,1.10
2022-08-10T17:06:41.179Z,1.10
2022-08-10T17:09:19.381Z,1.10
2022-08-10T17:11:55.636Z,1.20
2022-08-10T17:14:34.047Z,1.40
2022-08-10T17:17:15.075Z,1.25
2022-08-10T17:19:50.449Z,1.40
2022-08-10T17:22:24.866Z,2.00
2022-08-10T17:25:05.362Z,2.00
2022-08-10T17:28:20.159Z,1.60
2022-08-10T17:30:57.407Z,1.55
2022-08-10T17:33:32.861Z,2.92
2022-08-10T17:36:10.802Z,1.92
2022-08-10T17:38:49.159Z,2.10
2022-08-10T17:41:26.897Z,2.40
2022-08-10T17:44:03.537Z,2.20
2022-08-10T17:46:44.100Z,2.30
2022-08-10T17:49:19.066Z,2.35
2022-08-10T17:51:55.547Z,2.20
2022-08-10T17:54:31.755Z,2.93
2022-08-10T17:57:22.221Z,2.38
2022-08-10T17:59:56.479Z,2.20
2022-08-10T18:02:34.045Z,1.80
2022-08-10T18:05:08.963Z,2.10
2022-08-10T18:07:47.821Z,1.30
2022-08-10T18:10:23.949Z,1.85
2022-08-10T18:12:59.430Z,2.05
2022-08-10T18:15:38.346Z,1.73
2022-08-10T18:18:23.583Z,1.67
2022-08-10T18:21:07.734Z,2.30
2022-08-10T18:23:44.170Z,3.17
2022-08-10T18:26:39.906Z,4.10
2022-08-10T18:29:18.762Z,3.23
2022-08-10T18:31:59.246Z,5.43
2022-08-10T18:34:37.201Z,4.20
2022-08-10T18:37:15.800Z,3.50
2022-08-10T18:39:52.554Z,4.28
2022-08-10T18:42:30.963Z,3.77
2022-08-10T18:45:11.014Z,4.25
2022-08-10T18:47:58.998Z,5.35
2022-08-10T18:50:39.612Z,3.15
2022-08-10T18:53:17.373Z,3.05
2022-08-10T18:56:10.049Z,3.45
2022-08-10T18:58:53.112Z,2.45
2022-08-10T19:01:45.304Z,2.65
2022-08-10T19:04:47.421Z,3.30
2022-08-10T19:07:19.679Z,3.53
2022-08-10T19:10:00.145Z,3.45
2022-08-10T19:12:45.069Z,4.43
2022-08-10T19:15:28.063Z,4.05
2022-08-10T19:18:10.157Z,4.28
2022-08-10T19:20:47.985Z,4.03
2022-08-10T19:23:43.696Z,3.50
2022-08-10T19:26:43.192Z,4.10
2022-08-10T19:30:07.892Z,5.15
2022-08-10T19:32:34.979Z,5.35
2022-08-10T19:35:12.479Z,6.60
2022-08-10T19:38:00.413Z,6.95
2022-08-10T19:40:44.329Z,9.05
2022-08-10T19:43:59.273Z,8.02
2022-08-10T19:46:28.396Z,12.38
2022-08-10T19:49:06.626Z,10.18
2022-08-10T19:51:58.707Z,9.18
2022-08-10T19:54:35.688Z,6.35
2022-08-10T19:57:14.172Z,6.78
2022-08-10T20:00:17.660Z,4.35
2022-08-10T20:03:08.108Z,4.10
2022-08-10T20:06:19.446Z,3.15
2022-08-10T20:08:54.053Z,3.00
2022-08-10T20:11:45.987Z,2.97
2022-08-10T20:14:23.599Z,3.40
2022-08-10T20:17:05.982Z,3.03
2022-08-10T20:19:53.632Z,2.47
2022-08-10T20:22:31.048Z,2.70
2022-08-10T20:25:07.255Z,3.22
2022-08-10T20:28:00.649Z,3.07
2022-08-10T20:30:37.731Z,3.13
2022-08-10T20:33:19.037Z,2.63
2022-08-10T20:35:55.624Z,3.22
2022-08-10T20:38:34.224Z,2.95
2022-08-10T20:41:18.380Z,3.30
2022-08-10T20:43:51.640Z,3.00
2022-08-10T20:46:28.912Z,3.10
2022-08-10T20:49:11.391Z,3.40
2022-08-10T20:51:58.777Z,3.60
2022-08-10T20:54:37.425Z,3.83
2022-08-10T20:58:03.853Z,3.30
2022-08-10T21:00:33.451Z,3.30
2022-08-10T21:03:09.170Z,3.35
2022-08-10T21:06:02.259Z,3.30
2022-08-10T21:08:48.284Z,2.67
2022-08-10T21:11:30.826Z,3.20
2022-08-10T21:14:15.258Z,3.22
2022-08-10T21:16:59.497Z,3.40
2022-08-10T21:19:32.821Z,3.40
2022-08-10T21:22:15.886Z,3.10
2022-08-10T21:24:53.272Z,3.30
2022-08-10T21:27:34.318Z,3.75
2022-08-10T21:30:08.559Z,3.40
2022-08-10T21:32:50.952Z,3.20
2022-08-10T21:35:36.617Z,3.00
2022-08-10T21:38:29.181Z,3.22
2022-08-10T21:44:10.796Z,2.97
2022-08-10T21:47:01.677Z,3.10
2022-08-10T21:49:53.313Z,3.53
2022-08-10T21:52:41.427Z,3.60
2022-08-10T21:55:57.954Z,2.85
2022-08-10T21:58:49.184Z,3.42
2022-08-10T22:01:42.696Z,3.40
2022-08-10T22:04:30.118Z,3.03
2022-08-10T22:07:18.413Z,3.87
2022-08-10T22:10:07.122Z,3.30
2022-08-10T22:12:58.755Z,4.15
2022-08-10T22:16:10.056Z,3.20
2022-08-10T22:19:02.365Z,3.00
2022-08-10T22:21:45.059Z,3.00
2022-08-10T22:24:37.626Z,3.38
2022-08-10T22:27:45.912Z,3.50
2022-08-10T22:30:39.692Z,3.75
2022-08-10T22:33:33.745Z,3.67
2022-08-10T22:36:21.280Z,3.20
2022-08-10T22:39:13.463Z,3.50
2022-08-10T22:42:04.249Z,3.22
2022-08-10T22:44:52.253Z,2.65
2022-08-10T22:47:47.358Z,3.90
2022-08-10T22:50:22.573Z,3.38
2022-08-10T22:53:05.892Z,3.35
2022-08-10T22:55:53.863Z,3.35
2022-08-10T22:58:41.643Z,2.85
2022-08-10T23:01:40.684Z,3.03
2022-08-10T23:04:26.245Z,3.13
2022-08-10T23:07:13.655Z,3.00
2022-08-10T23:09:49.207Z,3.50
2022-08-10T23:12:26.464Z,4.00
2022-08-10T23:15:13.352Z,3.00
2022-08-10T23:18:04.925Z,3.42
2022-08-10T23:20:43.674Z,3.97
2022-08-10T23:23:23.356Z,3.38
2022-08-10T23:25:59.528Z,3.70
2022-08-10T23:28:39.096Z,3.60
2022-08-10T23:31:58.347Z,3.30
2022-08-10T23:34:27.065Z,3.70
2022-08-10T23:39:40.403Z,3.00
2022-08-10T23:42:18.397Z,3.38
2022-08-10T23:44:53.960Z,3.25
2022-08-10T23:47:29.627Z,2.90
2022-08-10T23:50:07.755Z,3.03
2022-08-10T23:52:51.718Z,2.92
2022-08-10T23:55:26.999Z,3.10
2022-08-10T23:58:05.403Z,3.40
